Time;durP1;ratioP1;P1;durP2;ratioP2;P2;SDS_P1;SDS_P2;PMS_P1;PMS_P2;Temp;Humidity;BMP_temperature;BMP_pressure;BME280_temperature;BME280_humidity;BME280_pressure;Samples;Min_cycle;Max_cycle;Signal;HPM_P1;HPM_P2
2022/05/07 00:00:35;;;;;;;52.67;19.13;;;;;;;;;;5090449;28;20077;-66
2022/05/07 00:03:01;;;;;;;48.03;16.77;;;;;;;;;;5082393;28;20040;-66
2022/05/07 00:05:27;;;;;;;30.75;15.73;;;;;;;;;;5088436;28;20035;-66
2022/05/07 00:07:53;;;;;;;34.67;16.10;;;;;;;;;;5088037;28;20070;-66
2022/05/07 00:10:19;;;;;;;47.63;18.15;;;;;;;;;;5092942;28;20052;-66
2022/05/07 00:12:45;;;;;;;42.17;17.52;;;;;;;;;;5078818;28;20044;-66
2022/05/07 00:15:12;;;;;;;31.25;15.60;;;;;;;;;;5092744;28;20127;-66
2022/05/07 00:20:22;;;;;;;20.25;13.88;;;;;;;;;;5088498;28;20048;-66
2022/05/07 00:22:48;;;;;;;24.25;15.27;;;;;;;;;;5090496;28;20131;-66
2022/05/07 00:25:14;;;;;;;26.20;15.18;;;;;;;;;;5086895;28;20045;-66
2022/05/07 00:27:40;;;;;;;27.50;15.27;;;;;;;;;;5107866;28;20139;-67
2022/05/07 00:30:07;;;;;;;18.95;13.93;;;;;;;;;;5092026;28;20386;-67
2022/05/07 00:32:33;;;;;;;30.05;14.98;;;;;;;;;;5090485;28;20052;-67
2022/05/07 00:34:59;;;;;;;28.23;15.82;;;;;;;;;;5091910;28;20045;-66
2022/05/07 00:37:25;;;;;;;24.80;14.90;;;;;;;;;;5084575;28;20044;-66
2022/05/07 00:39:51;;;;;;;28.00;15.85;;;;;;;;;;5087885;28;20447;-67
2022/05/07 00:42:18;;;;;;;25.73;15.05;;;;;;;;;;5084906;28;20051;-67
2022/05/07 00:44:44;;;;;;;19.08;13.80;;;;;;;;;;5082603;28;20041;-66
2022/05/07 00:47:17;;;;;;;40.15;17.35;;;;;;;;;;5092349;28;20087;-66
2022/05/07 00:49:44;;;;;;;18.40;12.73;;;;;;;;;;5095570;28;20077;-67
2022/05/07 00:52:10;;;;;;;39.45;18.95;;;;;;;;;;5087398;28;20527;-67
2022/05/07 00:54:37;;;;;;;26.05;15.00;;;;;;;;;;5082742;28;20072;-67
2022/05/07 00:57:03;;;;;;;33.40;17.38;;;;;;;;;;5092269;28;20040;-66
2022/05/07 00:59:29;;;;;;;30.15;16.45;;;;;;;;;;5094923;28;20110;-66
2022/05/07 01:01:55;;;;;;;34.92;17.55;;;;;;;;;;5079850;28;20052;-66
2022/05/07 01:04:21;;;;;;;23.92;15.38;;;;;;;;;;5087627;28;20131;-66
2022/05/07 01:06:47;;;;;;;21.75;14.02;;;;;;;;;;5092127;28;20470;-66
2022/05/07 01:09:13;;;;;;;29.38;16.40;;;;;;;;;;5088523;28;20136;-66
2022/05/07 01:11:41;;;;;;;27.30;16.10;;;;;;;;;;5076746;28;20045;-66
2022/05/07 01:14:07;;;;;;;22.33;14.82;;;;;;;;;;5076387;28;20589;-66
2022/05/07 01:16:33;;;;;;;23.70;14.63;;;;;;;;;;5084046;28;20055;-66
2022/05/07 01:18:59;;;;;;;24.45;15.77;;;;;;;;;;5089022;28;20131;-66
2022/05/07 01:21:25;;;;;;;21.65;15.20;;;;;;;;;;5081141;28;20164;-66
2022/05/07 01:23:51;;;;;;;19.23;13.85;;;;;;;;;;5087343;28;20395;-66
2022/05/07 01:26:20;;;;;;;21.67;15.07;;;;;;;;;;5089711;28;20044;-67
2022/05/07 01:28:46;;;;;;;26.42;17.02;;;;;;;;;;5079728;28;20087;-67
2022/05/07 01:31:12;;;;;;;27.42;16.95;;;;;;;;;;5086701;28;20059;-66
2022/05/07 01:33:39;;;;;;;25.13;16.83;;;;;;;;;;5089601;28;20047;-67
2022/05/07 01:36:16;;;;;;;27.05;16.75;;;;;;;;;;5085441;28;20051;-67
2022/05/07 01:38:42;;;;;;;27.58;17.10;;;;;;;;;;5091128;28;20048;-66
2022/05/07 01:41:08;;;;;;;25.05;17.08;;;;;;;;;;5094413;28;20116;-66
2022/05/07 01:43:34;;;;;;;33.58;19.75;;;;;;;;;;5083802;28;20044;-67
2022/05/07 01:46:00;;;;;;;28.38;18.50;;;;;;;;;;5085179;28;20078;-66
2022/05/07 01:48:27;;;;;;;33.05;19.83;;;;;;;;;;5089011;28;20374;-67
2022/05/07 01:50:53;;;;;;;34.83;19.77;;;;;;;;;;5088739;28;20048;-66
2022/05/07 01:53:19;;;;;;;32.03;20.65;;;;;;;;;;5095052;28;20055;-66
2022/05/07 01:55:45;;;;;;;33.75;21.30;;;;;;;;;;5094726;28;20059;-66
2022/05/07 01:58:11;;;;;;;32.85;20.63;;;;;;;;;;5087550;28;20047;-66
2022/05/07 02:00:40;;;;;;;27.30;18.50;;;;;;;;;;5095522;28;20131;-66
2022/05/07 02:03:06;;;;;;;39.78;21.77;;;;;;;;;;5084372;28;20044;-67
2022/05/07 02:05:32;;;;;;;32.33;20.75;;;;;;;;;;5090143;28;20071;-67
2022/05/07 02:07:58;;;;;;;32.35;19.55;;;;;;;;;;5090087;28;20044;-66
2022/05/07 02:10:25;;;;;;;31.98;19.13;;;;;;;;;;5093923;28;20131;-66
2022/05/07 02:12:51;;;;;;;31.17;20.90;;;;;;;;;;5084306;28;20048;-66
2022/05/07 02:15:17;;;;;;;46.67;23.20;;;;;;;;;;5091495;28;20449;-67
2022/05/07 02:17:43;;;;;;;41.38;22.42;;;;;;;;;;5086433;28;20066;-66
2022/05/07 02:20:09;;;;;;;49.15;22.85;;;;;;;;;;5082171;28;20501;-66
2022/05/07 02:22:35;;;;;;;37.83;20.58;;;;;;;;;;5091541;28;20120;-66
2022/05/07 02:25:01;;;;;;;40.13;21.90;;;;;;;;;;5085187;28;20048;-66
2022/05/07 02:27:27;;;;;;;43.95;22.30;;;;;;;;;;5092151;28;20052;-66
2022/05/07 02:29:53;;;;;;;33.30;19.88;;;;;;;;;;5088896;28;20173;-66
2022/05/07 02:32:20;;;;;;;60.65;24.27;;;;;;;;;;5094507;28;20063;-66
2022/05/07 02:34:46;;;;;;;48.63;23.00;;;;;;;;;;5083864;28;20491;-66
2022/05/07 02:37:12;;;;;;;42.90;22.05;;;;;;;;;;5085601;28;20047;-67
2022/05/07 02:39:38;;;;;;;44.67;22.02;;;;;;;;;;5085064;28;20428;-67
2022/05/07 02:44:50;;;;;;;79.40;22.08;;;;;;;;;;5081368;28;20403;-66
2022/05/07 02:47:16;;;;;;;31.80;20.30;;;;;;;;;;5093222;28;20055;-66
2022/05/07 02:49:42;;;;;;;37.63;20.50;;;;;;;;;;5074555;28;20131;-67
2022/05/07 02:52:08;;;;;;;33.60;19.77;;;;;;;;;;5091147;28;20101;-67
2022/05/07 02:54:34;;;;;;;43.67;20.30;;;;;;;;;;5088149;28;20043;-66
2022/05/07 02:57:00;;;;;;;40.47;21.38;;;;;;;;;;5092763;28;20040;-67
2022/05/07 02:59:26;;;;;;;53.72;21.60;;;;;;;;;;5083524;28;20072;-66
2022/05/07 03:01:52;;;;;;;42.85;20.77;;;;;;;;;;5088717;28;20083;-67
2022/05/07 03:04:19;;;;;;;38.97;21.55;;;;;;;;;;5083502;28;20055;-67
2022/05/07 03:06:45;;;;;;;44.95;22.33;;;;;;;;;;5084243;28;20040;-67
2022/05/07 03:09:11;;;;;;;31.45;20.60;;;;;;;;;;5093250;28;20058;-66
2022/05/07 03:11:37;;;;;;;30.35;22.27;;;;;;;;;;5085722;28;20187;-66
2022/05/07 03:14:05;;;;;;;36.03;24.15;;;;;;;;;;5081306;28;20388;-66
2022/05/07 03:16:31;;;;;;;34.13;21.73;;;;;;;;;;5087366;28;20052;-67
2022/05/07 03:18:57;;;;;;;43.15;24.67;;;;;;;;;;5081134;28;20670;-67
2022/05/07 03:21:23;;;;;;;68.85;27.35;;;;;;;;;;5088573;28;20040;-66
2022/05/07 03:23:49;;;;;;;41.70;21.85;;;;;;;;;;5089472;28;20050;-67
2022/05/07 03:26:17;;;;;;;77.57;28.58;;;;;;;;;;5081438;28;20045;-66
2022/05/07 03:28:43;;;;;;;112.32;34.28;;;;;;;;;;5080847;28;20110;-66
2022/05/07 03:31:09;;;;;;;137.75;36.63;;;;;;;;;;5086846;28;20073;-66
2022/05/07 03:33:35;;;;;;;71.68;28.33;;;;;;;;;;5093650;28;21014;-66
2022/05/07 03:36:01;;;;;;;65.57;27.98;;;;;;;;;;5082844;28;20380;-66
2022/05/07 03:38:27;;;;;;;102.18;32.90;;;;;;;;;;5102289;28;20055;-66
2022/05/07 03:40:53;;;;;;;113.97;35.25;;;;;;;;;;5091762;28;20487;-67
2022/05/07 03:43:19;;;;;;;127.60;37.47;;;;;;;;;;5093500;28;20564;-66
2022/05/07 03:45:45;;;;;;;133.20;37.40;;;;;;;;;;5083664;28;20048;-66
2022/05/07 03:48:11;;;;;;;232.38;52.90;;;;;;;;;;5084696;28;20048;-66
2022/05/07 03:50:37;;;;;;;130.93;37.90;;;;;;;;;;5085095;28;20047;-67
2022/05/07 03:55:48;;;;;;;143.07;38.60;;;;;;;;;;5091691;28;20049;-66
2022/05/07 03:58:17;;;;;;;143.15;37.38;;;;;;;;;;5080371;28;20120;-67
2022/05/07 04:00:44;;;;;;;77.13;29.50;;;;;;;;;;5085511;28;20126;-67
2022/05/07 04:03:10;;;;;;;99.50;34.05;;;;;;;;;;5085259;28;20055;-66
2022/05/07 04:05:36;;;;;;;96.20;33.00;;;;;;;;;;5092152;28;20058;-67
2022/05/07 04:08:02;;;;;;;76.93;29.73;;;;;;;;;;5079288;28;20040;-66
2022/05/07 04:10:28;;;;;;;96.90;33.40;;;;;;;;;;5093447;28;20055;-67
2022/05/07 04:12:54;;;;;;;128.10;37.83;;;;;;;;;;5089407;28;20072;-66
2022/05/07 04:15:20;;;;;;;101.50;33.30;;;;;;;;;;5092064;28;20066;-66
2022/05/07 04:17:47;;;;;;;142.18;42.65;;;;;;;;;;5089843;28;20062;-66
2022/05/07 04:20:13;;;;;;;144.57;41.63;;;;;;;;;;5093357;28;20048;-66
2022/05/07 04:22:39;;;;;;;138.60;39.03;;;;;;;;;;5084600;28;20040;-67
2022/05/07 04:25:06;;;;;;;137.50;41.05;;;;;;;;;;5072952;28;20076;-66
2022/05/07 04:27:32;;;;;;;139.02;42.10;;;;;;;;;;5088186;28;20064;-67
2022/05/07 04:29:58;;;;;;;159.95;50.22;;;;;;;;;;5092900;28;20051;-67
2022/05/07 04:32:25;;;;;;;138.02;45.33;;;;;;;;;;5090015;28;20499;-66
2022/05/07 04:34:51;;;;;;;206.52;55.47;;;;;;;;;;5085284;28;20161;-67
2022/05/07 04:37:17;;;;;;;113.90;39.88;;;;;;;;;;5080406;28;20044;-67
2022/05/07 04:39:43;;;;;;;151.60;45.80;;;;;;;;;;5092947;28;20083;-67
2022/05/07 04:42:09;;;;;;;62.45;30.13;;;;;;;;;;5084197;28;20091;-67
2022/05/07 04:44:35;;;;;;;79.95;31.83;;;;;;;;;;5083385;28;20036;-67
2022/05/07 04:47:01;;;;;;;147.80;46.95;;;;;;;;;;5079419;28;20364;-70
2022/05/07 04:49:27;;;;;;;69.68;32.00;;;;;;;;;;5083305;28;20053;-67
2022/05/07 04:51:53;;;;;;;80.05;33.45;;;;;;;;;;5088317;28;20045;-67
2022/05/07 04:54:22;;;;;;;158.85;53.80;;;;;;;;;;5081245;28;20123;-67
2022/05/07 04:56:49;;;;;;;71.03;33.58;;;;;;;;;;5080698;28;20109;-67
2022/05/07 04:59:15;;;;;;;157.35;48.17;;;;;;;;;;5082348;28;20041;-66
2022/05/07 05:01:41;;;;;;;96.05;36.15;;;;;;;;;;5084713;28;20055;-67
2022/05/07 05:04:07;;;;;;;98.03;37.00;;;;;;;;;;5076496;28;20067;-67
2022/05/07 05:06:34;;;;;;;46.25;26.15;;;;;;;;;;5073114;28;20045;-67
2022/05/07 05:09:00;;;;;;;49.85;26.35;;;;;;;;;;5083174;28;20075;-67
2022/05/07 05:11:26;;;;;;;85.22;33.83;;;;;;;;;;5081509;28;20040;-67
2022/05/07 05:13:52;;;;;;;91.05;36.33;;;;;;;;;;5088639;28;20046;-67
2022/05/07 05:16:18;;;;;;;42.53;26.67;;;;;;;;;;5087223;28;20055;-67
2022/05/07 05:18:44;;;;;;;37.15;24.42;;;;;;;;;;5091837;28;20048;-67
2022/05/07 05:21:10;;;;;;;36.10;24.08;;;;;;;;;;5096338;28;20044;-67
2022/05/07 05:23:36;;;;;;;32.00;24.35;;;;;;;;;;5102059;28;20051;-67
2022/05/07 05:26:02;;;;;;;33.42;24.73;;;;;;;;;;5094663;28;20040;-67
2022/05/07 05:28:28;;;;;;;34.67;24.67;;;;;;;;;;5089058;28;20053;-67
2022/05/07 05:30:55;;;;;;;33.63;25.00;;;;;;;;;;5091141;28;20056;-67
2022/05/07 05:33:22;;;;;;;65.10;30.48;;;;;;;;;;5094441;28;20071;-67
2022/05/07 05:35:48;;;;;;;48.70;27.90;;;;;;;;;;5094318;28;20032;-67
2022/05/07 05:38:15;;;;;;;55.80;26.20;;;;;;;;;;5084452;28;20044;-67
2022/05/07 05:40:44;;;;;;;33.17;23.38;;;;;;;;;;5083084;28;20047;-67
2022/05/07 05:43:10;;;;;;;28.50;21.65;;;;;;;;;;5082367;28;20052;-67
2022/05/07 05:45:37;;;;;;;34.45;24.17;;;;;;;;;;5086241;28;20067;-67
2022/05/07 05:48:04;;;;;;;30.35;22.80;;;;;;;;;;5089035;28;20040;-67
2022/05/07 05:50:30;;;;;;;33.80;23.77;;;;;;;;;;5090703;28;20044;-67
2022/05/07 05:52:57;;;;;;;34.30;23.48;;;;;;;;;;5094994;28;20115;-67
2022/05/07 05:55:23;;;;;;;35.97;23.80;;;;;;;;;;5093627;28;20083;-67
2022/05/07 05:57:49;;;;;;;34.17;22.10;;;;;;;;;;5086057;28;20052;-67
2022/05/07 06:00:16;;;;;;;31.77;22.27;;;;;;;;;;5084444;28;20057;-68
2022/05/07 06:02:44;;;;;;;28.73;21.52;;;;;;;;;;5080933;28;20076;-67
2022/05/07 06:05:10;;;;;;;30.45;21.60;;;;;;;;;;5084962;28;20049;-67
2022/05/07 06:07:36;;;;;;;30.17;22.40;;;;;;;;;;5094899;28;20387;-68
2022/05/07 06:10:02;;;;;;;33.72;25.35;;;;;;;;;;5092882;28;20044;-67
2022/05/07 06:12:28;;;;;;;29.85;23.10;;;;;;;;;;5086445;28;20440;-67
2022/05/07 06:14:55;;;;;;;30.17;23.13;;;;;;;;;;5076687;28;20453;-67
2022/05/07 06:17:21;;;;;;;29.50;23.67;;;;;;;;;;5095401;28;20044;-67
2022/05/07 06:19:47;;;;;;;30.27;22.05;;;;;;;;;;5084721;28;20125;-66
2022/05/07 06:22:13;;;;;;;30.05;21.83;;;;;;;;;;5089495;28;20419;-67
2022/05/07 06:27:31;;;;;;;26.25;19.38;;;;;;;;;;5083195;28;20056;-66
2022/05/07 06:30:05;;;;;;;29.85;21.58;;;;;;;;;;5080763;28;20044;-68
2022/05/07 06:32:32;;;;;;;39.15;22.23;;;;;;;;;;5085303;28;20498;-67
2022/05/07 06:35:05;;;;;;;27.30;20.35;;;;;;;;;;5089824;28;20102;-67
2022/05/07 06:37:32;;;;;;;26.98;19.23;;;;;;;;;;5086094;28;20072;-67
2022/05/07 06:39:58;;;;;;;22.85;18.02;;;;;;;;;;5074434;28;20136;-67
2022/05/07 06:42:24;;;;;;;27.52;20.25;;;;;;;;;;5085358;28;20040;-67
2022/05/07 06:44:50;;;;;;;26.60;19.98;;;;;;;;;;5091263;28;20051;-66
2022/05/07 06:47:16;;;;;;;24.88;20.15;;;;;;;;;;5094601;28;20072;-67
2022/05/07 06:49:43;;;;;;;29.50;19.88;;;;;;;;;;5088723;28;20040;-67
2022/05/07 06:52:09;;;;;;;25.85;19.50;;;;;;;;;;5078064;28;20093;-66
2022/05/07 06:54:35;;;;;;;24.50;18.33;;;;;;;;;;5078304;28;20123;-67
2022/05/07 06:57:01;;;;;;;22.83;18.80;;;;;;;;;;5086197;28;20055;-67
2022/05/07 06:59:27;;;;;;;27.60;20.05;;;;;;;;;;5093952;28;20074;-68
2022/05/07 07:01:54;;;;;;;30.25;19.13;;;;;;;;;;5086723;28;20404;-66
2022/05/07 07:04:20;;;;;;;26.20;19.85;;;;;;;;;;5088194;28;20063;-67
2022/05/07 07:06:46;;;;;;;25.13;19.73;;;;;;;;;;5092244;28;20044;-67
2022/05/07 07:09:12;;;;;;;29.77;20.08;;;;;;;;;;5091793;28;20102;-67
2022/05/07 07:11:38;;;;;;;47.97;23.77;;;;;;;;;;5089497;28;20083;-67
2022/05/07 07:14:04;;;;;;;54.60;24.88;;;;;;;;;;5090845;28;20032;-67
2022/05/07 07:16:30;;;;;;;45.60;20.77;;;;;;;;;;5089754;28;20123;-67
2022/05/07 07:18:56;;;;;;;31.23;20.92;;;;;;;;;;5092772;28;20044;-67
2022/05/07 07:21:22;;;;;;;31.23;20.30;;;;;;;;;;5092257;28;20101;-67
2022/05/07 07:23:48;;;;;;;25.63;19.77;;;;;;;;;;5089976;28;20046;-65
2022/05/07 07:26:15;;;;;;;22.67;18.90;;;;;;;;;;5088835;28;20536;-67
2022/05/07 07:28:41;;;;;;;23.45;19.63;;;;;;;;;;5090665;28;20354;-66
2022/05/07 07:31:10;;;;;;;27.98;19.80;;;;;;;;;;5097173;28;20109;-67
2022/05/07 07:33:38;;;;;;;30.63;20.35;;;;;;;;;;5091845;28;20032;-67
2022/05/07 07:36:04;;;;;;;28.27;21.02;;;;;;;;;;5092807;28;20043;-67
2022/05/07 07:38:30;;;;;;;28.13;18.13;;;;;;;;;;5091480;28;20039;-66
2022/05/07 07:40:56;;;;;;;27.00;19.20;;;;;;;;;;5091559;28;20371;-67
2022/05/07 07:43:22;;;;;;;24.48;19.10;;;;;;;;;;5091331;28;20115;-66
2022/05/07 07:48:33;;;;;;;30.25;20.60;;;;;;;;;;5092356;28;20044;-66
2022/05/07 07:50:59;;;;;;;32.00;22.65;;;;;;;;;;5087633;28;20536;-67
2022/05/07 07:53:25;;;;;;;53.30;24.92;;;;;;;;;;5088534;28;20043;-67
2022/05/07 07:55:52;;;;;;;28.73;20.75;;;;;;;;;;5092583;28;20055;-68
2022/05/07 07:58:18;;;;;;;28.33;20.52;;;;;;;;;;5088230;28;20067;-67
2022/05/07 08:00:44;;;;;;;28.02;21.65;;;;;;;;;;5090578;28;20067;-67
2022/05/07 08:03:17;;;;;;;28.92;22.02;;;;;;;;;;5089824;28;20364;-67
2022/05/07 08:05:44;;;;;;;25.17;20.67;;;;;;;;;;5087361;28;20040;-66
2022/05/07 08:13:41;;;;;;;31.23;22.23;;;;;;;;;;5080895;28;20056;-67
2022/05/07 08:16:08;;;;;;;29.70;22.05;;;;;;;;;;5086963;28;20123;-67
2022/05/07 08:18:34;;;;;;;31.38;22.35;;;;;;;;;;5082092;28;20662;-67
2022/05/07 08:21:01;;;;;;;28.95;21.45;;;;;;;;;;5086850;28;20086;-67
2022/05/07 08:23:27;;;;;;;28.27;21.45;;;;;;;;;;5077837;28;20408;-68
2022/05/07 08:25:53;;;;;;;28.27;20.90;;;;;;;;;;5079752;28;20044;-67
2022/05/07 08:28:19;;;;;;;24.77;19.75;;;;;;;;;;5090141;28;20162;-67
2022/05/07 08:30:45;;;;;;;27.70;21.08;;;;;;;;;;5085072;28;20056;-67
2022/05/07 08:33:12;;;;;;;29.48;20.17;;;;;;;;;;5082472;28;20044;-67
2022/05/07 08:35:38;;;;;;;27.33;19.92;;;;;;;;;;5084683;28;20055;-67
2022/05/07 08:38:04;;;;;;;29.10;19.95;;;;;;;;;;5081105;28;20036;-67
2022/05/07 08:40:30;;;;;;;33.55;20.90;;;;;;;;;;5092934;28;20384;-67
2022/05/07 08:42:57;;;;;;;30.27;20.67;;;;;;;;;;5081272;28;20037;-68
2022/05/07 08:45:23;;;;;;;29.70;19.73;;;;;;;;;;5086556;28;20066;-67
2022/05/07 08:47:53;;;;;;;25.40;19.10;;;;;;;;;;5097278;28;20055;-67
2022/05/07 08:50:19;;;;;;;27.55;20.02;;;;;;;;;;5082576;28;20095;-67
2022/05/07 08:52:46;;;;;;;25.35;17.85;;;;;;;;;;5091552;28;20040;-67
2022/05/07 08:55:16;;;;;;;24.50;17.20;;;;;;;;;;5093080;28;20044;-68
2022/05/07 08:57:42;;;;;;;23.00;16.30;;;;;;;;;;5088492;28;20398;-67
2022/05/07 09:00:09;;;;;;;22.38;16.63;;;;;;;;;;5084364;28;20047;-67
2022/05/07 09:02:48;;;;;;;21.27;16.48;;;;;;;;;;5082006;28;20071;-67
2022/05/07 09:05:14;;;;;;;26.45;16.00;;;;;;;;;;5087827;28;20082;-67
2022/05/07 09:07:51;;;;;;;22.30;16.35;;;;;;;;;;5093561;28;20036;-67
2022/05/07 09:10:17;;;;;;;21.77;15.00;;;;;;;;;;5096203;28;20048;-67
2022/05/07 09:12:43;;;;;;;20.65;13.40;;;;;;;;;;5084710;28;20072;-68
2022/05/07 09:15:09;;;;;;;24.85;15.50;;;;;;;;;;5079518;28;20483;-67
2022/05/07 09:17:37;;;;;;;21.42;14.73;;;;;;;;;;5089998;28;20076;-67
2022/05/07 09:20:16;;;;;;;25.02;14.57;;;;;;;;;;5081505;28;20063;-67
2022/05/07 09:22:49;;;;;;;21.27;13.93;;;;;;;;;;5084235;28;20055;-67
2022/05/07 09:25:20;;;;;;;30.45;15.20;;;;;;;;;;5093282;28;20177;-67
2022/05/07 09:27:51;;;;;;;22.75;13.85;;;;;;;;;;5091248;28;20570;-67
2022/05/07 09:30:21;;;;;;;22.05;14.43;;;;;;;;;;5076047;28;20067;-68
2022/05/07 09:32:49;;;;;;;26.15;14.63;;;;;;;;;;5078441;28;20076;-67
2022/05/07 09:38:01;;;;;;;24.42;13.93;;;;;;;;;;5085934;28;20200;-66
2022/05/07 09:40:27;;;;;;;21.27;15.15;;;;;;;;;;5084744;28;20048;-67
2022/05/07 09:42:56;;;;;;;23.58;13.73;;;;;;;;;;5096142;28;20059;-67
2022/05/07 09:45:21;;;;;;;;;;;;;;;;;;5084499;28;20098;-67
2022/05/07 09:47:48;;;;;;;20.92;13.80;;;;;;;;;;5093753;28;19979;-66
2022/05/07 09:50:20;;;;;;;22.75;13.27;;;;;;;;;;5092870;28;20043;-67
2022/05/07 09:58:17;;;;;;;22.23;13.25;;;;;;;;;;5079741;28;20040;-67
2022/05/07 10:00:53;;;;;;;17.67;12.27;;;;;;;;;;5082089;28;20517;-67
2022/05/07 10:03:31;;;;;;;24.58;13.30;;;;;;;;;;5086540;28;20051;-67
2022/05/07 10:06:08;;;;;;;21.15;13.30;;;;;;;;;;5094821;28;20044;-67
2022/05/07 10:08:43;;;;;;;22.65;13.30;;;;;;;;;;5090638;28;20055;-67
2022/05/07 10:11:09;;;;;;;26.05;14.25;;;;;;;;;;5090866;28;20076;-67
2022/05/07 10:13:36;;;;;;;20.33;13.07;;;;;;;;;;5087133;28;20495;-67
2022/05/07 10:16:03;;;;;;;20.15;13.15;;;;;;;;;;5100852;28;20051;-67
2022/05/07 10:18:38;;;;;;;21.83;13.05;;;;;;;;;;5081991;28;20521;-67
2022/05/07 10:21:17;;;;;;;37.40;13.65;;;;;;;;;;5086191;28;20115;-68
2022/05/07 10:23:52;;;;;;;20.15;13.13;;;;;;;;;;5081818;28;20052;-67
2022/05/07 10:26:19;;;;;;;22.77;14.25;;;;;;;;;;5093504;28;20475;-67
2022/05/07 10:28:45;;;;;;;21.23;13.27;;;;;;;;;;5084548;28;20043;-71
2022/05/07 10:31:24;;;;;;;17.63;12.13;;;;;;;;;;5091268;28;20040;-67
2022/05/07 10:33:51;;;;;;;22.25;12.80;;;;;;;;;;5086550;28;20123;-67
2022/05/07 10:36:19;;;;;;;22.65;11.93;;;;;;;;;;5087760;28;20044;-67
2022/05/07 10:38:49;;;;;;;23.50;12.23;;;;;;;;;;5081820;28;20040;-67
2022/05/07 10:41:15;;;;;;;20.45;12.60;;;;;;;;;;5073825;28;20109;-67
2022/05/07 10:43:44;;;;;;;17.23;11.98;;;;;;;;;;5085829;28;20040;-67
2022/05/07 10:46:16;;;;;;;21.73;13.40;;;;;;;;;;5084188;28;20066;-67
2022/05/07 10:48:45;;;;;;;23.23;13.18;;;;;;;;;;5082887;28;20392;-68
2022/05/07 10:51:17;;;;;;;19.95;12.23;;;;;;;;;;5079678;28;20081;-68
2022/05/07 10:53:43;;;;;;;20.25;12.18;;;;;;;;;;5089643;28;20135;-68
2022/05/07 10:56:29;;;;;;;29.67;12.52;;;;;;;;;;5100759;28;20131;-67
2022/05/07 10:58:57;;;;;;;19.67;12.07;;;;;;;;;;5091435;28;20046;-68
2022/05/07 11:01:23;;;;;;;18.90;11.50;;;;;;;;;;5084285;28;20036;-68
2022/05/07 11:04:00;;;;;;;21.02;13.10;;;;;;;;;;5082400;28;20076;-67
2022/05/07 11:06:26;;;;;;;22.63;13.02;;;;;;;;;;5074263;28;20503;-68
2022/05/07 11:08:53;;;;;;;22.05;13.88;;;;;;;;;;5083780;28;20124;-67
2022/05/07 11:11:19;;;;;;;19.00;12.77;;;;;;;;;;5084334;28;20058;-68
2022/05/07 11:13:45;;;;;;;26.35;13.00;;;;;;;;;;5093521;28;20040;-68
2022/05/07 11:16:11;;;;;;;21.98;13.77;;;;;;;;;;5099906;28;20101;-68
2022/05/07 11:18:40;;;;;;;23.80;14.25;;;;;;;;;;5089686;28;20432;-68
2022/05/07 11:21:08;;;;;;;53.10;19.52;;;;;;;;;;5093521;28;20087;-68
2022/05/07 11:23:39;;;;;;;18.65;12.30;;;;;;;;;;5087955;28;20044;-68
2022/05/07 11:26:17;;;;;;;24.00;14.40;;;;;;;;;;5075289;28;23062;-68
2022/05/07 11:28:45;;;;;;;26.20;15.57;;;;;;;;;;5091641;28;20044;-68
2022/05/07 11:31:11;;;;;;;25.50;13.20;;;;;;;;;;5072941;28;20080;-68
2022/05/07 11:33:38;;;;;;;26.52;14.13;;;;;;;;;;5079748;28;20411;-67
2022/05/07 11:36:06;;;;;;;24.08;12.95;;;;;;;;;;5107126;28;20131;-67
2022/05/07 11:38:33;;;;;;;18.92;12.50;;;;;;;;;;5092710;28;20532;-67
2022/05/07 11:41:08;;;;;;;19.17;12.43;;;;;;;;;;5092212;28;20051;-67
2022/05/07 11:46:19;;;;;;;19.35;11.68;;;;;;;;;;5083884;28;20135;-67
2022/05/07 11:48:45;;;;;;;18.75;12.68;;;;;;;;;;5086213;28;20147;-68
2022/05/07 11:51:11;;;;;;;21.90;13.48;;;;;;;;;;5086975;28;20115;-68
2022/05/07 11:53:37;;;;;;;22.45;14.38;;;;;;;;;;5085750;28;20124;-68
2022/05/07 11:56:06;;;;;;;19.48;13.00;;;;;;;;;;5088972;28;20039;-67
2022/05/07 11:58:40;;;;;;;20.27;13.15;;;;;;;;;;5087595;28;20478;-67
2022/05/07 12:01:16;;;;;;;17.75;13.05;;;;;;;;;;5085910;28;20047;-68
2022/05/07 12:03:42;;;;;;;21.02;14.25;;;;;;;;;;5083301;28;20399;-67
2022/05/07 12:06:08;;;;;;;20.15;13.77;;;;;;;;;;5087984;28;20498;-67
2022/05/07 12:08:35;;;;;;;19.58;14.93;;;;;;;;;;5087500;28;20116;-68
2022/05/07 12:11:02;;;;;;;18.63;13.20;;;;;;;;;;5084382;28;20044;-67
2022/05/07 12:13:29;;;;;;;20.10;13.63;;;;;;;;;;5085767;28;20040;-68
2022/05/07 12:18:41;;;;;;;20.55;13.07;;;;;;;;;;5084943;28;20414;-67
2022/05/07 12:21:07;;;;;;;27.85;12.40;;;;;;;;;;5093778;28;20533;-67
2022/05/07 12:31:49;;;;;;;16.95;12.50;;;;;;;;;;5096137;28;20083;-67
2022/05/07 12:34:15;;;;;;;17.63;12.20;;;;;;;;;;5096882;28;20052;-67
2022/05/07 12:36:41;;;;;;;14.75;11.43;;;;;;;;;;5091448;28;20434;-68
2022/05/07 12:39:07;;;;;;;23.05;13.00;;;;;;;;;;5093647;28;20152;-67
2022/05/07 12:41:33;;;;;;;14.70;11.73;;;;;;;;;;5092563;28;20057;-67
2022/05/07 12:44:00;;;;;;;18.90;12.50;;;;;;;;;;5076110;28;20506;-68
2022/05/07 12:46:26;;;;;;;17.05;12.15;;;;;;;;;;5084043;28;20484;-67
2022/05/07 12:48:52;;;;;;;19.40;12.02;;;;;;;;;;5094541;28;20266;-67
2022/05/07 12:51:19;;;;;;;18.60;12.82;;;;;;;;;;5093594;28;20123;-67
2022/05/07 12:53:45;;;;;;;26.85;15.27;;;;;;;;;;5082380;28;20040;-67
2022/05/07 12:56:11;;;;;;;23.70;14.38;;;;;;;;;;5085926;28;20517;-67
2022/05/07 12:58:37;;;;;;;26.77;16.30;;;;;;;;;;5092823;28;20048;-67
2022/05/07 13:01:03;;;;;;;39.30;18.35;;;;;;;;;;5088851;28;20159;-67
2022/05/07 13:03:29;;;;;;;34.00;18.42;;;;;;;;;;5089881;28;20055;-68
2022/05/07 13:05:55;;;;;;;31.17;20.58;;;;;;;;;;5093855;28;20468;-67
2022/05/07 13:08:21;;;;;;;27.08;20.35;;;;;;;;;;5090481;28;20126;-67
2022/05/07 13:10:48;;;;;;;30.33;21.95;;;;;;;;;;5089280;28;20086;-67
2022/05/07 13:13:17;;;;;;;41.83;23.52;;;;;;;;;;5090161;28;20086;-67
2022/05/07 13:15:42;;;;;;;;;;;;;;;;;;5095443;28;20094;-67
2022/05/07 13:18:08;;;;;;;24.90;18.15;;;;;;;;;;5090261;28;19928;-68
2022/05/07 13:20:34;;;;;;;28.42;19.40;;;;;;;;;;5089866;28;20063;-67
2022/05/07 13:23:00;;;;;;;32.05;19.88;;;;;;;;;;5093900;28;20036;-67
2022/05/07 13:25:26;;;;;;;27.10;18.67;;;;;;;;;;5092958;28;20036;-68
2022/05/07 13:27:52;;;;;;;23.17;16.90;;;;;;;;;;5089409;28;20494;-67
2022/05/07 13:30:19;;;;;;;22.63;16.85;;;;;;;;;;5090171;28;20059;-67
2022/05/07 13:32:48;;;;;;;23.48;18.52;;;;;;;;;;5093830;28;20040;-67
2022/05/07 13:35:18;;;;;;;20.75;16.42;;;;;;;;;;5086664;28;20055;-67
2022/05/07 13:37:44;;;;;;;22.33;17.08;;;;;;;;;;5074825;28;20048;-67
2022/05/07 13:40:10;;;;;;;28.00;19.55;;;;;;;;;;5075200;28;20041;-67
2022/05/07 13:42:37;;;;;;;25.52;17.30;;;;;;;;;;5094203;28;20044;-67
2022/05/07 13:45:13;;;;;;;26.85;19.20;;;;;;;;;;5083404;28;20040;-68
2022/05/07 13:47:41;;;;;;;28.73;21.10;;;;;;;;;;5086919;28;20499;-68
2022/05/07 13:50:08;;;;;;;29.55;22.90;;;;;;;;;;5078924;28;20048;-68
2022/05/07 13:52:35;;;;;;;28.45;22.10;;;;;;;;;;5086785;28;20094;-68
2022/05/07 13:55:01;;;;;;;30.25;21.17;;;;;;;;;;5084108;28;20534;-68
2022/05/07 13:57:27;;;;;;;34.33;21.83;;;;;;;;;;5076427;28;20179;-68
2022/05/07 13:59:53;;;;;;;32.28;21.77;;;;;;;;;;5091231;28;20399;-67
2022/05/07 14:02:19;;;;;;;29.67;21.00;;;;;;;;;;5091892;28;20495;-67
2022/05/07 14:04:45;;;;;;;26.27;19.13;;;;;;;;;;5089648;28;20044;-68
2022/05/07 14:07:14;;;;;;;28.23;20.25;;;;;;;;;;5076447;28;20127;-70
2022/05/07 14:09:47;;;;;;;26.10;18.30;;;;;;;;;;5072599;28;20523;-69
2022/05/07 14:12:13;;;;;;;21.15;17.63;;;;;;;;;;5083525;28;20048;-68
2022/05/07 14:14:39;;;;;;;21.10;16.35;;;;;;;;;;5078137;28;20122;-68
2022/05/07 14:17:05;;;;;;;30.10;17.52;;;;;;;;;;5091491;28;20127;-68
2022/05/07 14:19:31;;;;;;;26.23;17.25;;;;;;;;;;5086571;28;20102;-67
2022/05/07 14:21:57;;;;;;;29.42;18.17;;;;;;;;;;5081067;28;20036;-67
2022/05/07 14:24:23;;;;;;;24.73;17.48;;;;;;;;;;5085571;28;20036;-68
2022/05/07 14:26:49;;;;;;;22.48;16.60;;;;;;;;;;5088256;28;20052;-67
2022/05/07 14:29:15;;;;;;;23.58;16.40;;;;;;;;;;5092408;28;20044;-67
2022/05/07 14:31:40;;;;;;;24.60;16.42;;;;;;;;;;5090338;28;20387;-67
2022/05/07 14:34:06;;;;;;;26.65;16.90;;;;;;;;;;5076107;28;20036;-67
2022/05/07 14:36:32;;;;;;;24.55;15.80;;;;;;;;;;5078855;28;20037;-68
2022/05/07 14:38:58;;;;;;;24.13;15.63;;;;;;;;;;5091022;28;20042;-67
2022/05/07 14:41:24;;;;;;;23.35;15.27;;;;;;;;;;5090409;28;20517;-68
2022/05/07 14:43:52;;;;;;;23.90;15.18;;;;;;;;;;5091975;28;20047;-67
2022/05/07 14:46:20;;;;;;;26.77;14.30;;;;;;;;;;5090538;28;20044;-67
2022/05/07 14:48:46;;;;;;;26.50;15.35;;;;;;;;;;5085124;28;20097;-67
2022/05/07 14:51:12;;;;;;;21.80;13.95;;;;;;;;;;5092842;28;20058;-67
2022/05/07 14:53:38;;;;;;;18.98;12.95;;;;;;;;;;5087841;28;20036;-67
2022/05/07 14:56:04;;;;;;;20.70;13.35;;;;;;;;;;5084788;28;20381;-67